Time;durP1;ratioP1;P1;durP2;ratioP2;P2;SDS_P1;SDS_P2;PMS_P1;PMS_P2;Temp;Humidity;BMP_temperature;BMP_pressure;BME280_temperature;BME280_humidity;BME280_pressure;Samples;Min_cycle;Max_cycle;Signal;HPM_P1;HPM_P2
2023/10/15 00:00:18;;;;;;;3.97;1.50;;;;;;;;;;5031311;28;20243;-85
2023/10/15 00:02:46;;;;;;;4.13;1.00;;;;;;;;;;5031704;28;20235;-85
2023/10/15 00:05:15;;;;;;;4.90;0.90;;;;;;;;;;5032160;28;20219;-84
2023/10/15 00:07:42;;;;;;;2.97;1.10;;;;;;;;;;5031724;28;20244;-84
2023/10/15 00:10:11;;;;;;;4.17;1.20;;;;;;;;;;5032361;28;20288;-85
2023/10/15 00:12:39;;;;;;;5.97;1.00;;;;;;;;;;5031269;28;20206;-86
2023/10/15 00:15:08;;;;;;;4.00;0.90;;;;;;;;;;5032349;28;20238;-85
2023/10/15 00:17:35;;;;;;;6.53;1.10;;;;;;;;;;5031582;28;20211;-84
2023/10/15 00:20:09;;;;;;;5.33;1.03;;;;;;;;;;5031908;28;20200;-84
2023/10/15 00:22:37;;;;;;;3.47;1.00;;;;;;;;;;5031869;28;20306;-85
2023/10/15 00:25:08;;;;;;;2.70;0.83;;;;;;;;;;5032019;28;20232;-85
2023/10/15 00:27:37;;;;;;;5.10;1.30;;;;;;;;;;5031198;28;20228;-84
2023/10/15 00:30:06;;;;;;;2.93;0.90;;;;;;;;;;5031677;28;20208;-85
2023/10/15 00:32:34;;;;;;;5.43;0.83;;;;;;;;;;5031630;28;20204;-85
2023/10/15 00:35:01;;;;;;;3.93;0.80;;;;;;;;;;5031579;28;20660;-85
2023/10/15 00:37:28;;;;;;;3.27;0.93;;;;;;;;;;5031506;28;20659;-85
2023/10/15 00:39:58;;;;;;;5.77;1.00;;;;;;;;;;5031527;28;20227;-85
2023/10/15 00:42:28;;;;;;;3.23;1.00;;;;;;;;;;5031334;28;20228;-85
2023/10/15 00:44:58;;;;;;;5.73;0.90;;;;;;;;;;5031508;28;20270;-86
2023/10/15 00:47:34;;;;;;;3.93;0.80;;;;;;;;;;5031188;28;20283;-84
2023/10/15 00:50:07;;;;;;;5.87;1.07;;;;;;;;;;5031898;28;20188;-85
2023/10/15 00:52:37;;;;;;;3.40;0.83;;;;;;;;;;5031520;28;20712;-85
2023/10/15 00:55:06;;;;;;;3.83;0.80;;;;;;;;;;5031268;28;20205;-85
2023/10/15 00:57:41;;;;;;;4.40;1.10;;;;;;;;;;5030729;28;20665;-85
2023/10/15 01:00:36;;;;;;;3.07;0.80;;;;;;;;;;5031268;28;20243;-85
2023/10/15 01:03:03;;;;;;;4.40;1.03;;;;;;;;;;5032136;28;20263;-85
2023/10/15 01:05:33;;;;;;;7.13;1.20;;;;;;;;;;5035177;28;20197;-84
2023/10/15 01:08:03;;;;;;;6.70;1.10;;;;;;;;;;5035426;28;20294;-86
2023/10/15 01:10:36;;;;;;;4.13;1.10;;;;;;;;;;5035322;28;20184;-85
2023/10/15 01:13:12;;;;;;;5.90;0.90;;;;;;;;;;5035031;28;20825;-84
2023/10/15 01:15:43;;;;;;;6.07;0.80;;;;;;;;;;5034840;28;20224;-85
2023/10/15 01:18:10;;;;;;;3.17;0.70;;;;;;;;;;5034943;28;20704;-85
2023/10/15 01:20:40;;;;;;;4.03;0.90;;;;;;;;;;5035446;28;20283;-85
2023/10/15 01:23:07;;;;;;;5.50;1.10;;;;;;;;;;5034761;28;20256;-85
2023/10/15 01:25:45;;;;;;;4.07;1.10;;;;;;;;;;5028400;28;20462;-85
2023/10/15 01:28:13;;;;;;;5.90;0.93;;;;;;;;;;5027935;28;20204;-84
2023/10/15 01:30:41;;;;;;;7.30;1.43;;;;;;;;;;5034643;28;20789;-85
2023/10/15 01:33:10;;;;;;;3.87;1.00;;;;;;;;;;5034612;28;20594;-85
2023/10/15 01:35:40;;;;;;;6.60;1.10;;;;;;;;;;5034717;28;20279;-85
2023/10/15 01:38:20;;;;;;;5.30;0.90;;;;;;;;;;5034832;28;20200;-85
2023/10/15 01:40:56;;;;;;;2.43;0.87;;;;;;;;;;5034167;28;20220;-85
2023/10/15 01:43:23;;;;;;;3.07;0.90;;;;;;;;;;5030632;28;20231;-84
2023/10/15 01:45:56;;;;;;;6.10;1.13;;;;;;;;;;5025213;28;20574;-84
2023/10/15 01:48:27;;;;;;;4.83;0.87;;;;;;;;;;5034603;28;20201;-83
2023/10/15 01:51:04;;;;;;;4.33;0.80;;;;;;;;;;5034805;28;20254;-85
2023/10/15 01:53:34;;;;;;;9.10;1.10;;;;;;;;;;5034909;28;20271;-86
2023/10/15 01:56:03;;;;;;;3.80;1.00;;;;;;;;;;5034606;28;20581;-85
2023/10/15 01:58:33;;;;;;;2.67;1.07;;;;;;;;;;5034694;28;20205;-85
2023/10/15 02:01:13;;;;;;;4.40;0.80;;;;;;;;;;5034430;28;20212;-85
2023/10/15 02:03:41;;;;;;;5.10;0.93;;;;;;;;;;5034101;28;20201;-85
2023/10/15 02:06:08;;;;;;;4.30;1.10;;;;;;;;;;5034409;28;20303;-85
2023/10/15 02:08:39;;;;;;;5.87;1.00;;;;;;;;;;5034430;28;20290;-85
2023/10/15 02:11:17;;;;;;;5.40;1.23;;;;;;;;;;5033694;28;20657;-84
2023/10/15 02:13:48;;;;;;;4.67;1.10;;;;;;;;;;5025978;28;20212;-86
2023/10/15 02:16:25;;;;;;;7.57;1.07;;;;;;;;;;5013564;28;20229;-86
2023/10/15 02:18:52;;;;;;;5.10;1.23;;;;;;;;;;5024081;28;20204;-85
2023/10/15 02:21:20;;;;;;;6.77;1.50;;;;;;;;;;5033959;28;20192;-85
2023/10/15 02:23:50;;;;;;;4.07;1.40;;;;;;;;;;5033441;28;20593;-85
2023/10/15 02:26:23;;;;;;;4.83;1.23;;;;;;;;;;5034103;28;20193;-85
2023/10/15 02:28:53;;;;;;;7.67;1.30;;;;;;;;;;5033922;28;20661;-85
2023/10/15 02:31:22;;;;;;;2.33;1.00;;;;;;;;;;5033988;28;20203;-85
2023/10/15 02:33:49;;;;;;;4.23;1.00;;;;;;;;;;5033350;28;20292;-85
2023/10/15 02:36:17;;;;;;;4.07;1.10;;;;;;;;;;5033693;28;20268;-84
2023/10/15 02:38:53;;;;;;;4.23;0.83;;;;;;;;;;5033313;28;20200;-85
2023/10/15 02:41:22;;;;;;;3.40;1.07;;;;;;;;;;5033936;28;20196;-85
2023/10/15 02:43:53;;;;;;;3.43;0.70;;;;;;;;;;5033382;28;20207;-85
2023/10/15 02:46:22;;;;;;;4.70;1.03;;;;;;;;;;5033696;28;20723;-84
2023/10/15 02:48:53;;;;;;;2.60;1.03;;;;;;;;;;5033332;28;20254;-84
2023/10/15 02:51:23;;;;;;;3.93;1.20;;;;;;;;;;5033139;28;20250;-84
2023/10/15 02:53:52;;;;;;;2.53;1.10;;;;;;;;;;5032844;28;20653;-84
2023/10/15 02:56:20;;;;;;;3.83;0.83;;;;;;;;;;5033068;28;20201;-83
2023/10/15 02:58:49;;;;;;;4.13;1.03;;;;;;;;;;5032955;28;20696;-84
2023/10/15 03:01:19;;;;;;;5.07;1.00;;;;;;;;;;5033408;28;20224;-85
2023/10/15 03:03:50;;;;;;;3.87;2.33;;;;;;;;;;5032954;28;20231;-84
2023/10/15 03:06:19;;;;;;;2.90;1.17;;;;;;;;;;5033025;28;20251;-84
2023/10/15 03:08:50;;;;;;;5.00;1.33;;;;;;;;;;5032949;28;20236;-85
2023/10/15 03:11:20;;;;;;;3.47;1.03;;;;;;;;;;5033323;28;20203;-84
2023/10/15 03:13:53;;;;;;;6.20;1.10;;;;;;;;;;5032984;28;20197;-84
2023/10/15 03:16:21;;;;;;;2.57;0.87;;;;;;;;;;5032891;28;20978;-85
2023/10/15 03:18:49;;;;;;;5.73;1.07;;;;;;;;;;5032170;28;20208;-84
2023/10/15 03:21:26;;;;;;;3.60;1.17;;;;;;;;;;5032182;28;20282;-85
2023/10/15 03:23:55;;;;;;;4.60;1.20;;;;;;;;;;5032557;28;20305;-85
2023/10/15 03:26:22;;;;;;;3.90;1.13;;;;;;;;;;5033256;28;20247;-85
2023/10/15 03:28:58;;;;;;;4.30;0.87;;;;;;;;;;5032735;28;20200;-84
2023/10/15 03:31:27;;;;;;;3.50;1.00;;;;;;;;;;5032707;28;20200;-84
2023/10/15 03:34:16;;;;;;;4.73;0.80;;;;;;;;;;5032156;28;20670;-84
2023/10/15 03:36:52;;;;;;;5.67;1.27;;;;;;;;;;5032175;28;20572;-85
2023/10/15 03:39:25;;;;;;;5.07;0.97;;;;;;;;;;5032453;28;20196;-85
2023/10/15 03:42:09;;;;;;;4.00;1.00;;;;;;;;;;5032363;28;20810;-85
2023/10/15 03:44:43;;;;;;;3.67;1.00;;;;;;;;;;5032695;28;20232;-85
2023/10/15 03:47:11;;;;;;;4.10;0.80;;;;;;;;;;5031897;28;20702;-85
2023/10/15 03:49:38;;;;;;;3.53;1.27;;;;;;;;;;5032113;28;20287;-84
2023/10/15 03:52:08;;;;;;;3.90;0.90;;;;;;;;;;5031913;28;20235;-85
2023/10/15 03:54:37;;;;;;;4.40;1.13;;;;;;;;;;5032744;28;20203;-84
2023/10/15 03:57:06;;;;;;;4.17;1.10;;;;;;;;;;5032164;28;20223;-84
2023/10/15 03:59:42;;;;;;;1.97;0.93;;;;;;;;;;5032176;28;20203;-85
2023/10/15 04:02:17;;;;;;;3.93;0.90;;;;;;;;;;5032190;28;20236;-85
2023/10/15 04:04:48;;;;;;;2.63;0.90;;;;;;;;;;5031588;28;20199;-85
2023/10/15 04:07:20;;;;;;;3.97;1.00;;;;;;;;;;5031949;28;20706;-85
2023/10/15 04:09:50;;;;;;;3.13;0.70;;;;;;;;;;5031700;28;20570;-85
2023/10/15 04:12:18;;;;;;;3.87;0.90;;;;;;;;;;5031704;28;20213;-85
2023/10/15 04:14:46;;;;;;;4.03;0.93;;;;;;;;;;5031758;28;20231;-85
2023/10/15 04:17:15;;;;;;;3.70;1.33;;;;;;;;;;5032261;28;20210;-85
2023/10/15 04:19:43;;;;;;;4.63;1.20;;;;;;;;;;5031369;28;20216;-85
2023/10/15 04:22:14;;;;;;;3.97;1.27;;;;;;;;;;5031640;28;20229;-84
2023/10/15 04:24:42;;;;;;;4.73;0.90;;;;;;;;;;5032340;28;20637;-85
2023/10/15 04:27:15;;;;;;;5.57;1.00;;;;;;;;;;5032015;28;20234;-85
2023/10/15 04:29:49;;;;;;;3.43;1.07;;;;;;;;;;5031495;28;20196;-84
2023/10/15 04:32:28;;;;;;;4.10;0.90;;;;;;;;;;5031422;28;20211;-84
2023/10/15 04:35:01;;;;;;;2.63;1.10;;;;;;;;;;5031865;28;20197;-85
2023/10/15 04:37:29;;;;;;;4.50;1.07;;;;;;;;;;5030833;28;20255;-84
2023/10/15 04:39:58;;;;;;;3.70;1.20;;;;;;;;;;5031607;28;20219;-85
2023/10/15 04:42:30;;;;;;;5.07;1.20;;;;;;;;;;5031367;28;20227;-85
2023/10/15 04:44:59;;;;;;;4.47;1.10;;;;;;;;;;5031506;28;20197;-85
2023/10/15 04:47:38;;;;;;;3.13;0.93;;;;;;;;;;5031265;28;20235;-84
2023/10/15 04:50:14;;;;;;;4.50;1.30;;;;;;;;;;5031165;28;20203;-86
2023/10/15 04:52:41;;;;;;;2.57;1.00;;;;;;;;;;5031180;28;20287;-85
2023/10/15 04:55:10;;;;;;;2.60;1.10;;;;;;;;;;5031329;28;20287;-85
2023/10/15 04:57:39;;;;;;;3.97;1.10;;;;;;;;;;5031618;28;20255;-85
2023/10/15 05:00:07;;;;;;;2.03;1.00;;;;;;;;;;5031362;28;20681;-84
2023/10/15 05:02:35;;;;;;;3.23;1.10;;;;;;;;;;5031270;28;20307;-85
2023/10/15 05:05:05;;;;;;;1.97;0.90;;;;;;;;;;5030980;28;20244;-85
2023/10/15 05:07:32;;;;;;;2.73;1.00;;;;;;;;;;5031110;28;20575;-85
2023/10/15 05:09:59;;;;;;;3.33;1.00;;;;;;;;;;5031141;28;21415;-85
2023/10/15 05:12:28;;;;;;;4.23;1.30;;;;;;;;;;5031397;28;20207;-85
2023/10/15 05:14:55;;;;;;;2.90;1.00;;;;;;;;;;5031577;28;20303;-84
2023/10/15 05:17:22;;;;;;;3.07;1.33;;;;;;;;;;5030965;28;20259;-84
2023/10/15 05:19:54;;;;;;;4.53;1.03;;;;;;;;;;5030912;28;20297;-84
2023/10/15 05:22:21;;;;;;;4.07;1.10;;;;;;;;;;5030648;28;20204;-84
2023/10/15 05:24:49;;;;;;;2.20;1.23;;;;;;;;;;5031224;28;20206;-85
2023/10/15 05:27:16;;;;;;;3.40;1.03;;;;;;;;;;5031255;28;20228;-85
2023/10/15 05:29:43;;;;;;;4.43;1.10;;;;;;;;;;5030580;28;20217;-85
2023/10/15 05:32:10;;;;;;;3.30;1.20;;;;;;;;;;5030603;28;20581;-84
2023/10/15 05:34:37;;;;;;;2.80;1.07;;;;;;;;;;5031375;28;20258;-85
2023/10/15 05:37:06;;;;;;;3.57;1.23;;;;;;;;;;5030938;28;20288;-85
2023/10/15 05:39:33;;;;;;;2.70;1.00;;;;;;;;;;5031534;28;20231;-85
2023/10/15 05:42:00;;;;;;;2.37;1.20;;;;;;;;;;5031044;28;20228;-85
2023/10/15 05:44:28;;;;;;;3.03;1.10;;;;;;;;;;5030981;28;20271;-83
2023/10/15 05:46:55;;;;;;;3.37;1.13;;;;;;;;;;5030722;28;20650;-84
2023/10/15 05:49:22;;;;;;;2.27;1.20;;;;;;;;;;5031110;28;20201;-85
2023/10/15 05:51:49;;;;;;;2.80;1.23;;;;;;;;;;5034479;28;20639;-84
2023/10/15 05:54:18;;;;;;;5.13;1.37;;;;;;;;;;5034899;28;20633;-85
2023/10/15 05:56:45;;;;;;;3.67;1.20;;;;;;;;;;5034348;28;20251;-85
2023/10/15 05:59:12;;;;;;;3.33;1.60;;;;;;;;;;5034298;28;20221;-84
2023/10/15 06:01:39;;;;;;;3.20;1.40;;;;;;;;;;5033849;28;20231;-84
2023/10/15 06:04:07;;;;;;;2.83;1.67;;;;;;;;;;5033734;28;20349;-84
2023/10/15 06:06:36;;;;;;;4.73;1.40;;;;;;;;;;5034536;28;20231;-85
2023/10/15 06:09:05;;;;;;;3.87;1.57;;;;;;;;;;5034004;28;20602;-85
2023/10/15 06:11:34;;;;;;;4.60;1.60;;;;;;;;;;5034185;28;20311;-85
2023/10/15 06:14:01;;;;;;;3.37;1.73;;;;;;;;;;5034026;28;20567;-84
2023/10/15 06:16:28;;;;;;;2.70;1.53;;;;;;;;;;5034118;28;20200;-84
2023/10/15 06:18:56;;;;;;;5.70;1.30;;;;;;;;;;5033391;28;20231;-85
2023/10/15 06:21:24;;;;;;;3.73;1.50;;;;;;;;;;5034133;28;20255;-85
2023/10/15 06:23:52;;;;;;;3.33;1.60;;;;;;;;;;5033217;28;20315;-84
2023/10/15 06:26:19;;;;;;;2.50;1.37;;;;;;;;;;5033759;28;20776;-85
2023/10/15 06:28:49;;;;;;;4.43;1.40;;;;;;;;;;5034033;28;20574;-85
2023/10/15 06:31:16;;;;;;;3.20;1.70;;;;;;;;;;5033540;28;20197;-85
2023/10/15 06:33:44;;;;;;;2.80;1.70;;;;;;;;;;5033882;28;20247;-85
2023/10/15 06:36:11;;;;;;;3.63;1.50;;;;;;;;;;5033880;28;20201;-85
2023/10/15 06:38:38;;;;;;;2.77;1.40;;;;;;;;;;5033648;28;20653;-85
2023/10/15 06:41:10;;;;;;;3.00;1.23;;;;;;;;;;5033683;28;20548;-85
2023/10/15 06:43:37;;;;;;;2.90;1.20;;;;;;;;;;5033426;28;20241;-84
2023/10/15 06:46:10;;;;;;;3.73;1.27;;;;;;;;;;5033329;28;20210;-85
2023/10/15 06:48:38;;;;;;;3.27;1.43;;;;;;;;;;5033215;28;20196;-84
2023/10/15 06:51:06;;;;;;;3.53;1.60;;;;;;;;;;5033589;28;20228;-85
2023/10/15 06:53:34;;;;;;;4.47;1.70;;;;;;;;;;5033187;28;20196;-85
2023/10/15 06:56:01;;;;;;;4.77;1.70;;;;;;;;;;5033410;28;20232;-84
2023/10/15 06:58:29;;;;;;;3.03;1.40;;;;;;;;;;5033183;28;20205;-82
2023/10/15 07:00:56;;;;;;;1.83;1.10;;;;;;;;;;5032315;28;20204;-82
2023/10/15 07:03:25;;;;;;;2.20;1.07;;;;;;;;;;5033072;28;20307;-83
2023/10/15 07:05:52;;;;;;;4.57;1.60;;;;;;;;;;5033216;28;20206;-82
2023/10/15 07:08:20;;;;;;;4.03;1.20;;;;;;;;;;5032414;28;20259;-82
2023/10/15 07:10:49;;;;;;;3.80;1.40;;;;;;;;;;5031194;28;20200;-82
2023/10/15 07:13:17;;;;;;;3.70;2.03;;;;;;;;;;5013778;28;20218;-82
2023/10/15 07:15:45;;;;;;;5.43;1.90;;;;;;;;;;5018109;28;20676;-82
2023/10/15 07:18:13;;;;;;;4.27;1.60;;;;;;;;;;5046794;28;20193;-82
2023/10/15 07:20:41;;;;;;;2.53;1.10;;;;;;;;;;5032614;28;20200;-82
2023/10/15 07:23:09;;;;;;;3.03;1.17;;;;;;;;;;5032357;28;20744;-83
2023/10/15 07:25:36;;;;;;;2.03;1.00;;;;;;;;;;5032590;28;20204;-83
2023/10/15 07:28:04;;;;;;;3.93;1.23;;;;;;;;;;5025260;28;20705;-82
2023/10/15 07:30:33;;;;;;;2.90;1.20;;;;;;;;;;5012295;28;20201;-82
2023/10/15 07:33:00;;;;;;;2.67;1.10;;;;;;;;;;5048367;28;20201;-82
2023/10/15 07:35:28;;;;;;;4.37;1.73;;;;;;;;;;5030449;28;20204;-82
2023/10/15 07:37:57;;;;;;;3.00;1.20;;;;;;;;;;5028810;28;20291;-83
2023/10/15 07:40:27;;;;;;;2.20;1.10;;;;;;;;;;4681134;28;9999993;-83
2023/10/15 07:42:57;;;;;;;4.30;1.33;;;;;;;;;;5028425;28;20200;-82
2023/10/15 07:45:27;;;;;;;1.47;1.00;;;;;;;;;;5028986;28;20204;-82
2023/10/15 07:47:55;;;;;;;6.18;1.50;;;;;;;;;;5028199;28;20200;-81
2023/10/15 07:50:23;;;;;;;5.63;1.20;;;;;;;;;;5043346;28;20291;-82
2023/10/15 07:52:51;;;;;;;4.45;1.75;;;;;;;;;;5048829;28;20222;-83
2023/10/15 07:55:23;;;;;;;3.40;1.20;;;;;;;;;;5005119;28;20362;-82
2023/10/15 07:57:50;;;;;;;3.45;1.50;;;;;;;;;;5027850;28;20200;-82
2023/10/15 08:00:22;;;;;;;4.63;1.85;;;;;;;;;;5039477;28;20192;-83
2023/10/15 08:02:52;;;;;;;3.78;1.33;;;;;;;;;;5052186;28;20204;-83
2023/10/15 08:05:20;;;;;;;2.50;1.20;;;;;;;;;;5045550;28;20247;-83
2023/10/15 08:07:50;;;;;;;2.10;1.00;;;;;;;;;;5022215;28;20248;-82
2023/10/15 08:10:21;;;;;;;3.25;0.95;;;;;;;;;;5018333;28;20204;-82
2023/10/15 08:12:49;;;;;;;2.95;1.10;;;;;;;;;;5025383;28;20579;-83
2023/10/15 08:15:17;;;;;;;3.80;1.60;;;;;;;;;;5026662;28;20592;-81
2023/10/15 08:17:44;;;;;;;2.10;1.00;;;;;;;;;;5023685;28;20201;-82
2023/10/15 08:20:11;;;;;;;8.63;1.40;;;;;;;;;;5023340;28;20197;-82
2023/10/15 08:22:40;;;;;;;4.70;1.38;;;;;;;;;;5022706;28;20677;-81
2023/10/15 08:25:13;;;;;;;4.32;0.95;;;;;;;;;;5022881;28;20229;-82
2023/10/15 08:27:41;;;;;;;3.55;0.90;;;;;;;;;;5024889;28;20231;-80
2023/10/15 08:30:12;;;;;;;5.15;1.00;;;;;;;;;;5031506;28;20199;-81
2023/10/15 08:32:40;;;;;;;3.38;0.98;;;;;;;;;;5031036;28;20199;-81
2023/10/15 08:35:10;;;;;;;2.58;0.80;;;;;;;;;;5033353;28;20266;-81
2023/10/15 08:37:37;;;;;;;3.85;0.98;;;;;;;;;;5030760;28;20200;-81
2023/10/15 08:40:05;;;;;;;2.15;0.95;;;;;;;;;;5029001;28;20223;-82
2023/10/15 08:42:34;;;;;;;2.67;0.80;;;;;;;;;;5030706;28;20942;-81
2023/10/15 08:45:04;;;;;;;2.17;0.70;;;;;;;;;;5030805;28;20712;-82
2023/10/15 08:47:34;;;;;;;1.75;1.00;;;;;;;;;;5031123;28;20731;-81
2023/10/15 08:50:01;;;;;;;4.95;1.00;;;;;;;;;;5031030;28;20196;-82
2023/10/15 08:52:31;;;;;;;2.72;0.70;;;;;;;;;;5028839;28;20195;-81
2023/10/15 08:55:00;;;;;;;2.92;0.88;;;;;;;;;;5034404;28;20224;-82
2023/10/15 08:57:27;;;;;;;3.10;0.88;;;;;;;;;;5021475;28;20254;-83
2023/10/15 08:59:57;;;;;;;1.98;0.73;;;;;;;;;;5022321;28;20205;-82
2023/10/15 09:02:25;;;;;;;4.00;1.02;;;;;;;;;;5027339;28;20216;-82
2023/10/15 09:04:55;;;;;;;2.20;0.70;;;;;;;;;;5022443;28;20256;-80
2023/10/15 09:07:22;;;;;;;2.17;0.68;;;;;;;;;;5022840;28;20203;-82
2023/10/15 09:09:51;;;;;;;2.70;0.68;;;;;;;;;;5022716;28;20196;-83
2023/10/15 09:12:18;;;;;;;2.85;0.60;;;;;;;;;;5026361;28;20661;-83
2023/10/15 09:14:46;;;;;;;4.00;1.00;;;;;;;;;;5022226;28;20205;-81
2023/10/15 09:17:15;;;;;;;2.72;0.60;;;;;;;;;;5022864;28;20209;-80
2023/10/15 09:19:43;;;;;;;2.35;0.60;;;;;;;;;;5030670;28;20204;-81
2023/10/15 09:22:14;;;;;;;2.85;0.73;;;;;;;;;;5030641;28;20884;-82
2023/10/15 09:24:41;;;;;;;2.65;0.73;;;;;;;;;;5033150;28;20286;-81
2023/10/15 09:27:09;;;;;;;1.95;0.60;;;;;;;;;;5032708;28;20668;-82
2023/10/15 09:29:36;;;;;;;2.53;0.60;;;;;;;;;;5034340;28;20258;-81
2023/10/15 09:32:04;;;;;;;2.22;0.57;;;;;;;;;;5034368;28;20287;-82
2023/10/15 09:34:31;;;;;;;2.65;0.68;;;;;;;;;;5029246;28;20200;-80
2023/10/15 09:36:59;;;;;;;4.40;0.88;;;;;;;;;;5024214;28;20805;-81
2023/10/15 09:39:29;;;;;;;2.20;0.85;;;;;;;;;;5014842;28;20197;-81
2023/10/15 09:41:56;;;;;;;2.70;0.50;;;;;;;;;;5014886;28;20200;-80
2023/10/15 09:44:25;;;;;;;2.50;0.60;;;;;;;;;;5020410;28;20252;-81
2023/10/15 09:46:53;;;;;;;3.17;0.63;;;;;;;;;;5029872;28;20205;-81
2023/10/15 09:49:20;;;;;;;1.77;0.50;;;;;;;;;;5032553;28;20200;-82
2023/10/15 09:51:48;;;;;;;1.45;0.55;;;;;;;;;;5031396;28;20258;-82
2023/10/15 09:54:19;;;;;;;2.15;0.70;;;;;;;;;;5033685;28;20579;-81
2023/10/15 09:56:48;;;;;;;4.95;0.73;;;;;;;;;;5033922;28;20571;-81
2023/10/15 09:59:17;;;;;;;3.20;0.50;;;;;;;;;;5034401;28;20239;-82
2023/10/15 10:01:48;;;;;;;2.65;0.55;;;;;;;;;;5034074;28;20224;-82
2023/10/15 10:04:42;;;;;;;4.78;0.50;;;;;;;;;;5034471;28;20252;-82
2023/10/15 10:07:28;;;;;;;1.50;0.57;;;;;;;;;;5033700;28;20270;-81
2023/10/15 10:10:17;;;;;;;2.53;0.68;;;;;;;;;;5034008;28;20231;-82
2023/10/15 10:12:59;;;;;;;1.40;0.40;;;;;;;;;;5034187;28;20294;-82
2023/10/15 10:15:33;;;;;;;1.73;0.50;;;;;;;;;;5034283;28;20208;-81
2023/10/15 10:18:01;;;;;;;2.55;0.80;;;;;;;;;;5033970;28;20204;-81
2023/10/15 10:20:31;;;;;;;2.15;0.40;;;;;;;;;;5033960;28;20223;-82
2023/10/15 10:22:59;;;;;;;2.83;0.90;;;;;;;;;;5033401;28;20200;-81
2023/10/15 10:25:30;;;;;;;1.25;0.40;;;;;;;;;;5015879;28;20227;-81
2023/10/15 10:28:06;;;;;;;1.75;0.50;;;;;;;;;;5034535;28;20197;-81
2023/10/15 10:30:33;;;;;;;2.45;0.50;;;;;;;;;;5033761;28;20199;-82
2023/10/15 10:33:03;;;;;;;1.42;0.60;;;;;;;;;;5033679;28;20196;-82
2023/10/15 10:35:42;;;;;;;2.38;0.50;;;;;;;;;;5032753;28;20650;-82
2023/10/15 10:38:10;;;;;;;2.85;0.52;;;;;;;;;;5033594;28;20284;-81
2023/10/15 10:40:42;;;;;;;2.22;0.50;;;;;;;;;;5034107;28;20204;-82
2023/10/15 10:43:17;;;;;;;1.77;0.45;;;;;;;;;;5033759;28;20640;-82
2023/10/15 10:45:50;;;;;;;2.50;0.57;;;;;;;;;;5033306;28;20228;-81
2023/10/15 10:48:21;;;;;;;3.55;0.60;;;;;;;;;;5033554;28;20284;-83
2023/10/15 10:50:48;;;;;;;4.72;0.80;;;;;;;;;;5033363;28;20220;-80
2023/10/15 10:53:14;;;;;;;2.47;0.47;;;;;;;;;;5033424;28;20200;-81
2023/10/15 10:55:42;;;;;;;2.28;0.38;;;;;;;;;;5033492;28;20212;-81
2023/10/15 10:58:10;;;;;;;2.95;0.98;;;;;;;;;;5033153;28;20283;-81
2023/10/15 11:00:38;;;;;;;2.70;0.45;;;;;;;;;;5034099;28;20228;-82
2023/10/15 11:03:08;;;;;;;2.17;0.65;;;;;;;;;;5033309;28;20196;-82
2023/10/15 11:05:35;;;;;;;1.95;0.60;;;;;;;;;;5033028;28;20605;-82
2023/10/15 11:08:03;;;;;;;2.40;0.65;;;;;;;;;;5033610;28;20228;-82
2023/10/15 11:10:32;;;;;;;1.55;0.40;;;;;;;;;;5033083;28;20200;-81
2023/10/15 11:12:59;;;;;;;2.25;0.30;;;;;;;;;;5033437;28;20197;-81
2023/10/15 11:15:26;;;;;;;4.05;0.63;;;;;;;;;;5032868;28;20279;-80
2023/10/15 11:17:59;;;;;;;1.63;0.40;;;;;;;;;;5033358;28;20234;-81
2023/10/15 11:20:27;;;;;;;1.30;0.35;;;;;;;;;;5032735;28;20234;-81
2023/10/15 11:22:54;;;;;;;1.00;0.40;;;;;;;;;;5032841;28;20196;-81
2023/10/15 11:25:23;;;;;;;1.55;0.30;;;;;;;;;;5033068;28;20255;-81
2023/10/15 11:27:51;;;;;;;1.98;0.52;;;;;;;;;;5032846;28;20196;-81
2023/10/15 11:30:20;;;;;;;1.08;0.38;;;;;;;;;;5033102;28;20287;-81
2023/10/15 11:32:47;;;;;;;0.80;0.47;;;;;;;;;;5032547;28;20595;-81
2023/10/15 11:35:17;;;;;;;1.05;0.60;;;;;;;;;;5032373;28;20288;-82
2023/10/15 11:37:50;;;;;;;2.22;0.60;;;;;;;;;;5032603;28;20199;-81
2023/10/15 11:40:17;;;;;;;1.67;0.43;;;;;;;;;;5033493;28;20197;-81
2023/10/15 11:42:50;;;;;;;1.73;0.57;;;;;;;;;;5032288;28;20204;-81
2023/10/15 11:45:25;;;;;;;1.65;0.50;;;;;;;;;;5032497;28;20228;-81
2023/10/15 11:47:53;;;;;;;3.00;0.82;;;;;;;;;;5031540;28;20582;-83
2023/10/15 11:50:21;;;;;;;2.58;0.40;;;;;;;;;;5032121;28;20196;-82
2023/10/15 11:52:50;;;;;;;2.45;0.70;;;;;;;;;;5032086;28;20621;-82
2023/10/15 11:55:21;;;;;;;3.17;0.70;;;;;;;;;;5032294;28;20208;-82
2023/10/15 11:57:50;;;;;;;2.40;0.50;;;;;;;;;;5032531;28;20302;-82
2023/10/15 12:00:23;;;;;;;2.47;0.40;;;;;;;;;;5032146;28;20192;-82
2023/10/15 12:02:51;;;;;;;3.88;0.60;;;;;;;;;;5031933;28;20207;-82
2023/10/15 12:05:20;;;;;;;2.08;0.55;;;;;;;;;;5031750;28;20223;-82
2023/10/15 12:07:49;;;;;;;2.55;0.50;;;;;;;;;;5032157;28;20644;-82
2023/10/15 12:10:16;;;;;;;3.33;0.68;;;;;;;;;;5032122;28;20196;-82
2023/10/15 12:12:43;;;;;;;1.00;0.38;;;;;;;;;;5031587;28;20731;-82
2023/10/15 12:15:12;;;;;;;1.58;0.60;;;;;;;;;;5031943;28;20199;-83
2023/10/15 12:17:39;;;;;;;1.67;0.52;;;;;;;;;;5031256;28;20681;-82
2023/10/15 12:20:07;;;;;;;1.75;0.40;;;;;;;;;;5012438;28;20283;-82
2023/10/15 12:22:34;;;;;;;1.70;0.43;;;;;;;;;;5011959;28;20681;-83
2023/10/15 12:25:04;;;;;;;1.65;0.57;;;;;;;;;;5012062;28;20237;-82
2023/10/15 12:27:31;;;;;;;2.03;0.57;;;;;;;;;;5011869;28;20201;-82
2023/10/15 12:30:03;;;;;;;2.45;0.55;;;;;;;;;;5012397;28;20224;-81
2023/10/15 12:32:30;;;;;;;1.10;0.40;;;;;;;;;;5011771;28;20201;-82
2023/10/15 12:34:57;;;;;;;1.98;0.40;;;;;;;;;;5011705;28;20228;-81
2023/10/15 12:37:29;;;;;;;1.83;0.50;;;;;;;;;;5012150;28;20203;-81
2023/10/15 12:39:57;;;;;;;2.42;0.60;;;;;;;;;;5012123;28;20197;-82
2023/10/15 12:42:25;;;;;;;0.98;0.50;;;;;;;;;;5011882;28;20224;-81
2023/10/15 12:44:53;;;;;;;1.90;0.50;;;;;;;;;;5012076;28;20312;-81
2023/10/15 12:47:21;;;;;;;1.50;0.50;;;;;;;;;;5011612;28;20230;-81
2023/10/15 12:49:48;;;;;;;1.33;0.55;;;;;;;;;;5011843;28;20201;-82
2023/10/15 12:52:15;;;;;;;1.35;0.60;;;;;;;;;;5011854;28;20201;-82
2023/10/15 12:54:42;;;;;;;1.00;0.50;;;;;;;;;;5011844;28;20236;-82
2023/10/15 12:57:10;;;;;;;1.92;0.55;;;;;;;;;;5011872;28;20203;-82
2023/10/15 12:59:39;;;;;;;2.08;0.43;;;;;;;;;;5014192;28;20201;-80
2023/10/15 13:02:07;;;;;;;3.15;0.50;;;;;;;;;;5015184;28;20197;-81
2023/10/15 13:04:34;;;;;;;2.00;0.50;;;;;;;;;;5015920;28;20201;-81
2023/10/15 13:07:03;;;;;;;1.58;0.50;;;;;;;;;;5015725;28;20264;-81
2023/10/15 13:09:32;;;;;;;1.88;0.45;;;;;;;;;;5015708;28;20323;-82
2023/10/15 13:12:01;;;;;;;2.63;0.63;;;;;;;;;;5015675;28;20224;-80
2023/10/15 13:14:28;;;;;;;1.80;0.50;;;;;;;;;;5015580;28;20208;-82
2023/10/15 13:16:57;;;;;;;1.65;0.45;;;;;;;;;;5015188;28;20569;-81
2023/10/15 13:19:24;;;;;;;1.92;0.55;;;;;;;;;;5029523;28;20254;-82
2023/10/15 13:21:51;;;;;;;1.95;0.50;;;;;;;;;;5035203;28;20196;-81
2023/10/15 13:24:19;;;;;;;2.72;0.63;;;;;;;;;;5035533;28;20219;-81
2023/10/15 13:26:46;;;;;;;2.05;0.55;;;;;;;;;;5035106;28;20664;-82
2023/10/15 13:29:14;;;;;;;2.92;0.50;;;;;;;;;;5034907;28;20196;-82
2023/10/15 13:31:42;;;;;;;1.67;0.60;;;;;;;;;;5034758;28;20207;-82
2023/10/15 13:34:12;;;;;;;2.28;0.40;;;;;;;;;;5035159;28;20200;-82
2023/10/15 13:36:39;;;;;;;2.63;0.50;;;;;;;;;;5035357;28;20204;-81
2023/10/15 13:39:15;;;;;;;2.22;0.63;;;;;;;;;;5035077;28;20231;-82
2023/10/15 13:41:43;;;;;;;2.40;0.60;;;;;;;;;;5034993;28;20295;-83
2023/10/15 13:44:14;;;;;;;2.25;0.50;;;;;;;;;;5034400;28;20669;-82
2023/10/15 13:46:45;;;;;;;1.42;0.40;;;;;;;;;;5034028;28;20219;-84
2023/10/15 13:49:13;;;;;;;2.10;0.50;;;;;;;;;;5034124;28;20653;-81
2023/10/15 13:51:40;;;;;;;2.45;0.45;;;;;;;;;;5029654;28;20713;-81
2023/10/15 13:54:08;;;;;;;2.88;0.50;;;;;;;;;;5025850;28;20292;-80
2023/10/15 13:56:35;;;;;;;2.10;0.50;;;;;;;;;;5044618;28;20192;-80
2023/10/15 13:59:02;;;;;;;1.92;0.60;;;;;;;;;;5054745;28;20223;-80
2023/10/15 14:01:31;;;;;;;2.42;0.70;;;;;;;;;;5048057;28;20288;-79
2023/10/15 14:03:58;;;;;;;1.95;0.50;;;;;;;;;;5054537;28;20549;-81
2023/10/15 14:06:27;;;;;;;1.98;0.52;;;;;;;;;;5053664;28;20267;-80
2023/10/15 14:08:54;;;;;;;1.80;0.70;;;;;;;;;;5031918;28;20249;-79
2023/10/15 14:11:22;;;;;;;2.65;0.68;;;;;;;;;;5024032;28;20200;-80
2023/10/15 14:13:49;;;;;;;1.17;0.55;;;;;;;;;;5030660;28;20219;-81
2023/10/15 14:16:16;;;;;;;3.75;0.60;;;;;;;;;;5033244;28;20784;-80
2023/10/15 14:18:44;;;;;;;2.60;0.50;;;;;;;;;;5030190;28;20937;-80
2023/10/15 14:21:11;;;;;;;2.58;0.40;;;;;;;;;;5033401;28;20220;-81
2023/10/15 14:23:39;;;;;;;2.30;0.60;;;;;;;;;;5032820;28;20283;-80
2023/10/15 14:26:07;;;;;;;1.13;0.50;;;;;;;;;;5033745;28;20244;-80
2023/10/15 14:28:34;;;;;;;2.15;0.50;;;;;;;;;;5033188;28;20204;-80
2023/10/15 14:31:01;;;;;;;2.00;0.50;;;;;;;;;;5033256;28;20230;-80
2023/10/15 14:33:29;;;;;;;1.98;0.40;;;;;;;;;;5031588;28;20649;-80
2023/10/15 14:35:59;;;;;;;1.77;0.60;;;;;;;;;;5030483;28;20299;-80
2023/10/15 14:38:29;;;;;;;0.93;0.40;;;;;;;;;;5022840;28;20638;-80
2023/10/15 14:40:58;;;;;;;1.67;0.60;;;;;;;;;;5044807;28;20291;-80
2023/10/15 14:43:25;;;;;;;1.13;0.50;;;;;;;;;;5040711;28;20188;-79
2023/10/15 14:45:53;;;;;;;1.10;0.50;;;;;;;;;;5032155;28;20660;-79
2023/10/15 14:48:20;;;;;;;1.17;0.60;;;;;;;;;;5029811;28;20216;-80
2023/10/15 14:50:47;;;;;;;1.15;0.50;;;;;;;;;;5033061;28;20193;-81
2023/10/15 14:53:15;;;;;;;1.63;0.40;;;;;;;;;;5030601;28;20220;-81
2023/10/15 14:55:44;;;;;;;1.30;0.60;;;;;;;;;;5032337;28;20291;-81